CheckWX is a tool to help pilots better visualize weather data.  It is not intended as a substitute for an official pre-flight weather briefing.

14:50:58 UTC

6S0 METAR
Big Timber Airport
Big Timber, Montana, USA
Current

16 mins ago

K6S0 231435Z AUTO 25021G27KT 10SM CLR 04/M02 A2995 RMK A01
Observed
Mar-23 @ 14:35 UTC
Wind
  • 250° at 21 KTS
  • Gusting to 27 KTS
Visibility
10 SM
Flight Rules
VFR
Cloud Levels
  • Clear skies
Temperature
C / 39°F
Dewpoint
-2°C / 28°F
Humidity
65%
Altimeter
29.95" Hg
Pressure
1014.22 hPa
Previous

36 mins ago

K6S0 231415Z AUTO 25024KT 10SM CLR 04/M03 A2995 RMK A01
Observed
Mar-23 @ 14:15 UTC
Wind
  • 250° at 24 KTS
Visibility
10 SM
Flight Rules
VFR
Cloud Levels
  • Clear skies
Temperature
C / 39°F
Dewpoint
-3°C / 27°F
Humidity
61%
Altimeter
29.95" Hg
Pressure
1014.22 hPa
Previous

56 mins ago

K6S0 231355Z AUTO 25025KT 10SM CLR 03/M03 A2995 RMK A01
Observed
Mar-23 @ 13:55 UTC
Wind
  • 250° at 25 KTS
Visibility
10 SM
Flight Rules
VFR
Cloud Levels
  • Clear skies
Temperature
C / 37°F
Dewpoint
-3°C / 27°F
Humidity
65%
Altimeter
29.95" Hg
Pressure
1014.22 hPa